sensor_id;sensor_type;location;lat;lon;timestamp;temperature;humidity
9446;DHT22;4761;49.490;10.908;2023-06-14T00:00:13;22.50;50.00
9446;DHT22;4761;49.490;10.908;2023-06-14T00:02:40;22.50;50.00
9446;DHT22;4761;49.490;10.908;2023-06-14T00:05:07;22.50;50.10
9446;DHT22;4761;49.490;10.908;2023-06-14T00:07:37;22.50;50.10
9446;DHT22;4761;49.490;10.908;2023-06-14T00:10:04;22.50;50.10
9446;DHT22;4761;49.490;10.908;2023-06-14T00:12:30;22.50;50.20
9446;DHT22;4761;49.490;10.908;2023-06-14T00:14:55;22.50;50.20
9446;DHT22;4761;49.490;10.908;2023-06-14T00:17:21;22.50;50.20
9446;DHT22;4761;49.490;10.908;2023-06-14T00:19:47;22.50;50.30
9446;DHT22;4761;49.490;10.908;2023-06-14T00:22:12;22.50;50.30
9446;DHT22;4761;49.490;10.908;2023-06-14T00:24:38;22.50;50.40
9446;DHT22;4761;49.490;10.908;2023-06-14T00:27:03;22.50;50.40
9446;DHT22;4761;49.490;10.908;2023-06-14T00:29:29;22.40;50.30
9446;DHT22;4761;49.490;10.908;2023-06-14T00:31:54;22.40;50.40
9446;DHT22;4761;49.490;10.908;2023-06-14T00:34:20;22.40;50.50
9446;DHT22;4761;49.490;10.908;2023-06-14T00:36:45;22.40;50.50
9446;DHT22;4761;49.490;10.908;2023-06-14T00:39:11;22.40;50.50
9446;DHT22;4761;49.490;10.908;2023-06-14T00:41:37;22.40;50.60
9446;DHT22;4761;49.490;10.908;2023-06-14T00:44:03;22.40;50.60
9446;DHT22;4761;49.490;10.908;2023-06-14T00:46:29;22.40;50.60
9446;DHT22;4761;49.490;10.908;2023-06-14T00:48:56;22.40;50.70
9446;DHT22;4761;49.490;10.908;2023-06-14T00:51:22;22.40;50.70
9446;DHT22;4761;49.490;10.908;2023-06-14T00:53:47;22.40;50.70
9446;DHT22;4761;49.490;10.908;2023-06-14T00:56:14;22.40;50.70
9446;DHT22;4761;49.490;10.908;2023-06-14T00:58:40;22.40;50.70
9446;DHT22;4761;49.490;10.908;2023-06-14T01:01:06;22.30;50.60
9446;DHT22;4761;49.490;10.908;2023-06-14T01:03:32;22.30;50.60
9446;DHT22;4761;49.490;10.908;2023-06-14T01:06:30;22.30;50.60
9446;DHT22;4761;49.490;10.908;2023-06-14T01:11:50;22.30;50.70
9446;DHT22;4761;49.490;10.908;2023-06-14T01:14:20;22.30;50.70
9446;DHT22;4761;49.490;10.908;2023-06-14T01:16:46;22.30;50.70
9446;DHT22;4761;49.490;10.908;2023-06-14T01:19:12;22.30;50.60
9446;DHT22;4761;49.490;10.908;2023-06-14T01:21:39;22.30;50.50
9446;DHT22;4761;49.490;10.908;2023-06-14T01:24:08;22.30;50.60
9446;DHT22;4761;49.490;10.908;2023-06-14T01:26:35;22.30;50.50
9446;DHT22;4761;49.490;10.908;2023-06-14T01:29:03;22.30;50.50
9446;DHT22;4761;49.490;10.908;2023-06-14T01:31:29;22.30;50.50
9446;DHT22;4761;49.490;10.908;2023-06-14T01:33:55;22.30;50.60
9446;DHT22;4761;49.490;10.908;2023-06-14T01:36:20;22.30;50.60
9446;DHT22;4761;49.490;10.908;2023-06-14T01:38:48;22.30;50.70
9446;DHT22;4761;49.490;10.908;2023-06-14T01:41:16;22.30;50.70
9446;DHT22;4761;49.490;10.908;2023-06-14T01:43:43;22.20;50.70
9446;DHT22;4761;49.490;10.908;2023-06-14T01:46:09;22.20;50.80
9446;DHT22;4761;49.490;10.908;2023-06-14T01:48:35;22.30;50.90
9446;DHT22;4761;49.490;10.908;2023-06-14T01:51:01;22.20;50.80
9446;DHT22;4761;49.490;10.908;2023-06-14T01:53:27;22.30;50.90
9446;DHT22;4761;49.490;10.908;2023-06-14T01:55:52;22.20;50.80
9446;DHT22;4761;49.490;10.908;2023-06-14T01:58:19;22.20;50.90
9446;DHT22;4761;49.490;10.908;2023-06-14T02:00:45;22.20;50.90
9446;DHT22;4761;49.490;10.908;2023-06-14T02:03:11;22.20;50.90
9446;DHT22;4761;49.490;10.908;2023-06-14T02:05:37;22.20;50.90
9446;DHT22;4761;49.490;10.908;2023-06-14T02:08:04;22.10;50.90
9446;DHT22;4761;49.490;10.908;2023-06-14T02:10:30;22.10;50.90
9446;DHT22;4761;49.490;10.908;2023-06-14T02:12:56;22.20;51.10
9446;DHT22;4761;49.490;10.908;2023-06-14T02:15:21;22.10;51.00
9446;DHT22;4761;49.490;10.908;2023-06-14T02:17:47;22.10;51.00
9446;DHT22;4761;49.490;10.908;2023-06-14T02:20:13;22.10;51.00
9446;DHT22;4761;49.490;10.908;2023-06-14T02:22:38;22.10;51.00
9446;DHT22;4761;49.490;10.908;2023-06-14T02:25:04;22.10;51.00
9446;DHT22;4761;49.490;10.908;2023-06-14T02:27:30;22.10;51.00
9446;DHT22;4761;49.490;10.908;2023-06-14T02:29:56;22.10;51.00
9446;DHT22;4761;49.490;10.908;2023-06-14T02:32:21;22.10;51.00
9446;DHT22;4761;49.490;10.908;2023-06-14T02:34:47;22.10;51.00
9446;DHT22;4761;49.490;10.908;2023-06-14T02:37:15;22.10;51.10
9446;DHT22;4761;49.490;10.908;2023-06-14T02:39:41;22.10;51.10
9446;DHT22;4761;49.490;10.908;2023-06-14T02:42:07;22.10;51.10
9446;DHT22;4761;49.490;10.908;2023-06-14T02:44:32;22.10;51.10
9446;DHT22;4761;49.490;10.908;2023-06-14T02:46:58;22.10;51.10
9446;DHT22;4761;49.490;10.908;2023-06-14T02:49:26;22.10;51.10
9446;DHT22;4761;49.490;10.908;2023-06-14T02:51:51;22.10;51.10
9446;DHT22;4761;49.490;10.908;2023-06-14T02:54:17;22.10;51.10
9446;DHT22;4761;49.490;10.908;2023-06-14T02:56:43;22.10;51.10
9446;DHT22;4761;49.490;10.908;2023-06-14T02:59:09;22.10;51.10
9446;DHT22;4761;49.490;10.908;2023-06-14T03:01:35;22.10;51.00
9446;DHT22;4761;49.490;10.908;2023-06-14T03:04:01;22.10;51.00
9446;DHT22;4761;49.490;10.908;2023-06-14T03:06:31;22.10;51.00
9446;DHT22;4761;49.490;10.908;2023-06-14T03:08:58;22.10;51.00
9446;DHT22;4761;49.490;10.908;2023-06-14T03:11:25;22.10;51.10
9446;DHT22;4761;49.490;10.908;2023-06-14T03:13:51;22.10;51.10
9446;DHT22;4761;49.490;10.908;2023-06-14T03:16:17;22.00;51.00
9446;DHT22;4761;49.490;10.908;2023-06-14T03:18:51;22.00;51.00
9446;DHT22;4761;49.490;10.908;2023-06-14T03:21:17;22.10;51.10
9446;DHT22;4761;49.490;10.908;2023-06-14T03:23:43;22.00;51.00
9446;DHT22;4761;49.490;10.908;2023-06-14T03:26:09;22.00;51.00
9446;DHT22;4761;49.490;10.908;2023-06-14T03:28:38;22.00;51.00
9446;DHT22;4761;49.490;10.908;2023-06-14T03:31:03;22.00;51.00
9446;DHT22;4761;49.490;10.908;2023-06-14T03:33:29;22.10;51.10
9446;DHT22;4761;49.490;10.908;2023-06-14T03:35:54;22.10;51.00
9446;DHT22;4761;49.490;10.908;2023-06-14T03:38:21;22.10;50.90
9446;DHT22;4761;49.490;10.908;2023-06-14T03:40:47;22.20;50.90
9446;DHT22;4761;49.490;10.908;2023-06-14T03:43:12;22.20;50.90
9446;DHT22;4761;49.490;10.908;2023-06-14T03:45:38;22.20;51.40
9446;DHT22;4761;49.490;10.908;2023-06-14T03:48:04;22.20;50.80
9446;DHT22;4761;49.490;10.908;2023-06-14T03:50:32;22.10;50.70
9446;DHT22;4761;49.490;10.908;2023-06-14T03:52:58;22.20;50.80
9446;DHT22;4761;49.490;10.908;2023-06-14T03:55:23;22.10;50.70
9446;DHT22;4761;49.490;10.908;2023-06-14T03:57:51;22.10;50.80
9446;DHT22;4761;49.490;10.908;2023-06-14T04:00:17;22.10;50.80
9446;DHT22;4761;49.490;10.908;2023-06-14T04:02:43;22.10;50.80
9446;DHT22;4761;49.490;10.908;2023-06-14T04:05:09;22.10;50.80
9446;DHT22;4761;49.490;10.908;2023-06-14T04:07:35;22.10;50.80
9446;DHT22;4761;49.490;10.908;2023-06-14T04:10:11;22.10;50.90
9446;DHT22;4761;49.490;10.908;2023-06-14T04:12:37;22.10;50.90
9446;DHT22;4761;49.490;10.908;2023-06-14T04:15:02;22.10;50.90
9446;DHT22;4761;49.490;10.908;2023-06-14T04:17:29;22.10;50.90
9446;DHT22;4761;49.490;10.908;2023-06-14T04:19:54;22.10;50.90
9446;DHT22;4761;49.490;10.908;2023-06-14T04:22:20;22.10;50.90
9446;DHT22;4761;49.490;10.908;2023-06-14T04:24:46;22.10;50.90
9446;DHT22;4761;49.490;10.908;2023-06-14T04:27:11;22.10;50.90
9446;DHT22;4761;49.490;10.908;2023-06-14T04:29:37;22.10;50.90
9446;DHT22;4761;49.490;10.908;2023-06-14T04:32:02;22.10;50.80
9446;DHT22;4761;49.490;10.908;2023-06-14T04:34:28;22.10;50.80
9446;DHT22;4761;49.490;10.908;2023-06-14T04:36:59;22.10;50.80
9446;DHT22;4761;49.490;10.908;2023-06-14T04:39:26;22.10;50.80
9446;DHT22;4761;49.490;10.908;2023-06-14T04:41:53;22.10;50.80
9446;DHT22;4761;49.490;10.908;2023-06-14T04:44:23;22.10;50.80
9446;DHT22;4761;49.490;10.908;2023-06-14T04:46:56;22.10;50.80
9446;DHT22;4761;49.490;10.908;2023-06-14T04:49:22;22.10;50.80
9446;DHT22;4761;49.490;10.908;2023-06-14T04:51:48;22.10;50.80
9446;DHT22;4761;49.490;10.908;2023-06-14T04:54:23;22.20;50.90
9446;DHT22;4761;49.490;10.908;2023-06-14T04:56:50;22.10;50.80
9446;DHT22;4761;49.490;10.908;2023-06-14T04:59:15;22.20;50.90
9446;DHT22;4761;49.490;10.908;2023-06-14T05:01:42;22.10;50.80
9446;DHT22;4761;49.490;10.908;2023-06-14T05:04:13;22.20;50.90
9446;DHT22;4761;49.490;10.908;2023-06-14T05:06:38;22.20;50.90
9446;DHT22;4761;49.490;10.908;2023-06-14T05:09:04;22.10;50.80
9446;DHT22;4761;49.490;10.908;2023-06-14T05:11:29;22.10;50.80
9446;DHT22;4761;49.490;10.908;2023-06-14T05:13:55;22.20;50.80
9446;DHT22;4761;49.490;10.908;2023-06-14T05:16:21;22.20;50.80
9446;DHT22;4761;49.490;10.908;2023-06-14T05:18:48;22.20;50.90
9446;DHT22;4761;49.490;10.908;2023-06-14T05:21:14;22.20;50.90
9446;DHT22;4761;49.490;10.908;2023-06-14T05:23:43;22.10;50.80
9446;DHT22;4761;49.490;10.908;2023-06-14T05:26:09;22.20;50.90
9446;DHT22;4761;49.490;10.908;2023-06-14T05:28:35;22.20;50.90
9446;DHT22;4761;49.490;10.908;2023-06-14T05:31:01;22.20;50.90
9446;DHT22;4761;49.490;10.908;2023-06-14T05:33:26;22.20;50.90
9446;DHT22;4761;49.490;10.908;2023-06-14T05:35:52;22.20;50.80
9446;DHT22;4761;49.490;10.908;2023-06-14T05:38:17;22.20;51.40
9446;DHT22;4761;49.490;10.908;2023-06-14T05:40:43;22.20;50.80
9446;DHT22;4761;49.490;10.908;2023-06-14T05:43:09;22.20;50.80
9446;DHT22;4761;49.490;10.908;2023-06-14T05:45:34;22.20;50.80
9446;DHT22;4761;49.490;10.908;2023-06-14T05:48:00;22.20;50.80
9446;DHT22;4761;49.490;10.908;2023-06-14T05:50:25;22.20;50.80
9446;DHT22;4761;49.490;10.908;2023-06-14T05:52:51;22.30;50.90
9446;DHT22;4761;49.490;10.908;2023-06-14T05:55:17;22.30;50.80
9446;DHT22;4761;49.490;10.908;2023-06-14T05:57:42;22.30;50.80
9446;DHT22;4761;49.490;10.908;2023-06-14T06:00:08;22.30;50.70
9446;DHT22;4761;49.490;10.908;2023-06-14T06:02:36;22.30;50.70
9446;DHT22;4761;49.490;10.908;2023-06-14T06:05:01;22.30;50.60
9446;DHT22;4761;49.490;10.908;2023-06-14T06:07:27;22.30;50.60
9446;DHT22;4761;49.490;10.908;2023-06-14T06:09:53;22.30;50.60
9446;DHT22;4761;49.490;10.908;2023-06-14T06:12:18;22.30;50.60
9446;DHT22;4761;49.490;10.908;2023-06-14T06:14:44;22.30;50.60
9446;DHT22;4761;49.490;10.908;2023-06-14T06:17:10;22.30;50.50
9446;DHT22;4761;49.490;10.908;2023-06-14T06:19:35;22.30;50.50
9446;DHT22;4761;49.490;10.908;2023-06-14T06:22:01;22.30;50.50
9446;DHT22;4761;49.490;10.908;2023-06-14T06:24:26;22.30;50.50
9446;DHT22;4761;49.490;10.908;2023-06-14T06:26:52;22.30;50.40
9446;DHT22;4761;49.490;10.908;2023-06-14T06:29:17;22.30;50.40
9446;DHT22;4761;49.490;10.908;2023-06-14T06:31:43;22.30;50.40
9446;DHT22;4761;49.490;10.908;2023-06-14T06:34:08;22.30;50.50
9446;DHT22;4761;49.490;10.908;2023-06-14T06:36:34;22.30;50.50
9446;DHT22;4761;49.490;10.908;2023-06-14T06:39:00;22.30;50.50
9446;DHT22;4761;49.490;10.908;2023-06-14T06:41:26;22.30;50.50
9446;DHT22;4761;49.490;10.908;2023-06-14T06:43:52;22.30;50.50
9446;DHT22;4761;49.490;10.908;2023-06-14T06:46:17;22.30;50.40
9446;DHT22;4761;49.490;10.908;2023-06-14T06:48:44;22.30;50.40
9446;DHT22;4761;49.490;10.908;2023-06-14T06:51:09;22.30;50.40
9446;DHT22;4761;49.490;10.908;2023-06-14T06:53:35;22.30;50.80
9446;DHT22;4761;49.490;10.908;2023-06-14T06:56:00;22.30;50.40
9446;DHT22;4761;49.490;10.908;2023-06-14T06:58:26;22.30;50.30
9446;DHT22;4761;49.490;10.908;2023-06-14T07:00:52;22.30;50.30
9446;DHT22;4761;49.490;10.908;2023-06-14T07:03:18;22.30;50.30
9446;DHT22;4761;49.490;10.908;2023-06-14T07:05:45;22.30;50.10
9446;DHT22;4761;49.490;10.908;2023-06-14T07:08:10;22.20;49.90
9446;DHT22;4761;49.490;10.908;2023-06-14T07:10:36;22.30;50.10
9446;DHT22;4761;49.490;10.908;2023-06-14T07:13:02;22.30;50.10
9446;DHT22;4761;49.490;10.908;2023-06-14T07:15:29;22.30;50.00
9446;DHT22;4761;49.490;10.908;2023-06-14T07:17:54;22.30;50.10
9446;DHT22;4761;49.490;10.908;2023-06-14T07:20:25;22.30;50.00
9446;DHT22;4761;49.490;10.908;2023-06-14T07:22:51;22.30;49.90
9446;DHT22;4761;49.490;10.908;2023-06-14T07:25:16;22.30;49.90
9446;DHT22;4761;49.490;10.908;2023-06-14T07:27:45;22.40;49.90
9446;DHT22;4761;49.490;10.908;2023-06-14T07:30:11;22.40;50.00
9446;DHT22;4761;49.490;10.908;2023-06-14T07:32:37;22.40;50.00
9446;DHT22;4761;49.490;10.908;2023-06-14T07:35:03;22.40;49.80
9446;DHT22;4761;49.490;10.908;2023-06-14T07:37:29;22.40;49.80
9446;DHT22;4761;49.490;10.908;2023-06-14T07:39:54;22.40;49.80
9446;DHT22;4761;49.490;10.908;2023-06-14T07:42:20;22.40;49.80
9446;DHT22;4761;49.490;10.908;2023-06-14T07:44:46;22.40;50.00
9446;DHT22;4761;49.490;10.908;2023-06-14T07:47:11;22.40;50.10
9446;DHT22;4761;49.490;10.908;2023-06-14T07:49:37;22.40;50.00
9446;DHT22;4761;49.490;10.908;2023-06-14T07:52:03;22.40;50.00
9446;DHT22;4761;49.490;10.908;2023-06-14T07:54:30;22.40;49.80
9446;DHT22;4761;49.490;10.908;2023-06-14T07:56:56;22.40;49.50
9446;DHT22;4761;49.490;10.908;2023-06-14T07:59:23;22.40;49.50
9446;DHT22;4761;49.490;10.908;2023-06-14T08:01:49;22.50;49.50
9446;DHT22;4761;49.490;10.908;2023-06-14T08:04:14;22.50;50.30
9446;DHT22;4761;49.490;10.908;2023-06-14T08:06:41;22.50;49.60
9446;DHT22;4761;49.490;10.908;2023-06-14T08:09:10;22.50;49.70
9446;DHT22;4761;49.490;10.908;2023-06-14T08:11:36;22.50;49.80
9446;DHT22;4761;49.490;10.908;2023-06-14T08:14:02;22.50;49.60
9446;DHT22;4761;49.490;10.908;2023-06-14T08:16:27;22.50;49.50
9446;DHT22;4761;49.490;10.908;2023-06-14T08:18:53;22.50;49.40
9446;DHT22;4761;49.490;10.908;2023-06-14T08:21:18;22.50;49.40
9446;DHT22;4761;49.490;10.908;2023-06-14T08:23:44;22.50;49.50
9446;DHT22;4761;49.490;10.908;2023-06-14T08:26:10;22.50;49.70
9446;DHT22;4761;49.490;10.908;2023-06-14T08:28:36;22.50;49.70
9446;DHT22;4761;49.490;10.908;2023-06-14T08:31:01;22.50;49.60
9446;DHT22;4761;49.490;10.908;2023-06-14T08:33:27;22.50;49.60
9446;DHT22;4761;49.490;10.908;2023-06-14T08:35:52;22.50;49.60
9446;DHT22;4761;49.490;10.908;2023-06-14T08:38:18;22.50;49.50
9446;DHT22;4761;49.490;10.908;2023-06-14T08:40:46;22.50;49.30
9446;DHT22;4761;49.490;10.908;2023-06-14T08:43:13;22.50;49.10
9446;DHT22;4761;49.490;10.908;2023-06-14T08:45:38;22.60;49.20
9446;DHT22;4761;49.490;10.908;2023-06-14T08:48:07;22.60;49.00
9446;DHT22;4761;49.490;10.908;2023-06-14T08:50:32;22.60;49.10
9446;DHT22;4761;49.490;10.908;2023-06-14T08:53:01;22.60;49.20
9446;DHT22;4761;49.490;10.908;2023-06-14T08:55:29;22.70;49.40
9446;DHT22;4761;49.490;10.908;2023-06-14T08:57:56;22.70;49.10
9446;DHT22;4761;49.490;10.908;2023-06-14T09:00:26;22.70;49.20
9446;DHT22;4761;49.490;10.908;2023-06-14T09:02:52;22.70;49.30
9446;DHT22;4761;49.490;10.908;2023-06-14T09:05:24;22.70;49.30
9446;DHT22;4761;49.490;10.908;2023-06-14T09:07:50;22.70;49.60
9446;DHT22;4761;49.490;10.908;2023-06-14T09:10:16;22.70;49.60
9446;DHT22;4761;49.490;10.908;2023-06-14T09:12:42;22.70;49.40
9446;DHT22;4761;49.490;10.908;2023-06-14T09:15:08;22.70;49.40
9446;DHT22;4761;49.490;10.908;2023-06-14T09:17:35;22.70;49.50
9446;DHT22;4761;49.490;10.908;2023-06-14T09:20:04;22.70;49.40
9446;DHT22;4761;49.490;10.908;2023-06-14T09:22:35;22.70;49.40
9446;DHT22;4761;49.490;10.908;2023-06-14T09:25:00;22.80;49.60
9446;DHT22;4761;49.490;10.908;2023-06-14T09:27:27;22.80;49.40
9446;DHT22;4761;49.490;10.908;2023-06-14T09:29:53;22.80;49.40
9446;DHT22;4761;49.490;10.908;2023-06-14T09:32:19;22.80;49.00
9446;DHT22;4761;49.490;10.908;2023-06-14T09:34:45;22.80;49.00
9446;DHT22;4761;49.490;10.908;2023-06-14T09:37:11;22.80;48.90
9446;DHT22;4761;49.490;10.908;2023-06-14T09:39:49;22.80;48.60
9446;DHT22;4761;49.490;10.908;2023-06-14T09:42:19;22.80;48.40
9446;DHT22;4761;49.490;10.908;2023-06-14T09:44:48;22.80;48.70
9446;DHT22;4761;49.490;10.908;2023-06-14T09:47:15;22.80;48.60
9446;DHT22;4761;49.490;10.908;2023-06-14T09:49:42;22.80;48.00
9446;DHT22;4761;49.490;10.908;2023-06-14T09:52:10;22.80;48.20
9446;DHT22;4761;49.490;10.908;2023-06-14T09:54:41;22.90;49.00
9446;DHT22;4761;49.490;10.908;2023-06-14T09:57:12;22.90;48.80
9446;DHT22;4761;49.490;10.908;2023-06-14T09:59:45;22.90;48.70
9446;DHT22;4761;49.490;10.908;2023-06-14T10:02:28;23.00;48.80
9446;DHT22;4761;49.490;10.908;2023-06-14T10:05:05;23.00;48.50
9446;DHT22;4761;49.490;10.908;2023-06-14T10:10:19;23.00;48.00
9446;DHT22;4761;49.490;10.908;2023-06-14T10:12:44;23.10;48.20
9446;DHT22;4761;49.490;10.908;2023-06-14T10:15:17;23.10;48.20
9446;DHT22;4761;49.490;10.908;2023-06-14T10:17:51;23.10;48.00
9446;DHT22;4761;49.490;10.908;2023-06-14T10:20:38;23.10;47.70
9446;DHT22;4761;49.490;10.908;2023-06-14T10:23:12;23.10;47.90
9446;DHT22;4761;49.490;10.908;2023-06-14T10:25:38;23.10;47.60
9446;DHT22;4761;49.490;10.908;2023-06-14T10:28:20;23.00;47.50
9446;DHT22;4761;49.490;10.908;2023-06-14T10:34:20;23.10;48.00
9446;DHT22;4761;49.490;10.908;2023-06-14T10:41:29;23.10;48.20
9446;DHT22;4761;49.490;10.908;2023-06-14T10:46:59;23.10;48.50
9446;DHT22;4761;49.490;10.908;2023-06-14T10:49:43;23.10;48.50
9446;DHT22;4761;49.490;10.908;2023-06-14T10:52:17;23.10;48.70
9446;DHT22;4761;49.490;10.908;2023-06-14T10:57:21;23.00;48.90
9446;DHT22;4761;49.490;10.908;2023-06-14T10:59:47;23.10;49.10
9446;DHT22;4761;49.490;10.908;2023-06-14T11:04:49;23.00;49.30
9446;DHT22;4761;49.490;10.908;2023-06-14T11:12:47;23.00;49.50
9446;DHT22;4761;49.490;10.908;2023-06-14T11:15:13;23.10;49.50
9446;DHT22;4761;49.490;10.908;2023-06-14T11:17:38;23.00;49.60
9446;DHT22;4761;49.490;10.908;2023-06-14T11:20:11;23.00;49.60
9446;DHT22;4761;49.490;10.908;2023-06-14T11:22:41;23.10;49.60
9446;DHT22;4761;49.490;10.908;2023-06-14T11:25:11;23.10;49.70
9446;DHT22;4761;49.490;10.908;2023-06-14T11:27:37;23.00;49.60
9446;DHT22;4761;49.490;10.908;2023-06-14T11:30:03;23.10;49.70
9446;DHT22;4761;49.490;10.908;2023-06-14T11:32:31;23.10;49.70
9446;DHT22;4761;49.490;10.908;2023-06-14T11:34:56;23.10;49.60
9446;DHT22;4761;49.490;10.908;2023-06-14T11:37:24;23.10;49.20
9446;DHT22;4761;49.490;10.908;2023-06-14T11:39:51;23.10;49.60
9446;DHT22;4761;49.490;10.908;2023-06-14T11:42:17;23.10;49.60
9446;DHT22;4761;49.490;10.908;2023-06-14T11:44:46;23.10;49.70
9446;DHT22;4761;49.490;10.908;2023-06-14T11:47:12;23.10;49.40
9446;DHT22;4761;49.490;10.908;2023-06-14T11:49:38;23.10;49.40
9446;DHT22;4761;49.490;10.908;2023-06-14T11:52:04;23.10;49.60
9446;DHT22;4761;49.490;10.908;2023-06-14T11:54:31;23.10;49.70
9446;DHT22;4761;49.490;10.908;2023-06-14T11:56:57;23.10;49.70
9446;DHT22;4761;49.490;10.908;2023-06-14T11:59:23;23.10;49.80
9446;DHT22;4761;49.490;10.908;2023-06-14T12:01:49;23.10;49.60
9446;DHT22;4761;49.490;10.908;2023-06-14T12:04:22;23.10;49.70
9446;DHT22;4761;49.490;10.908;2023-06-14T12:06:48;23.10;49.90
9446;DHT22;4761;49.490;10.908;2023-06-14T12:09:14;23.10;49.90
9446;DHT22;4761;49.490;10.908;2023-06-14T12:11:43;23.10;50.00
9446;DHT22;4761;49.490;10.908;2023-06-14T12:14:09;23.10;50.20
9446;DHT22;4761;49.490;10.908;2023-06-14T12:16:37;23.10;50.00
9446;DHT22;4761;49.490;10.908;2023-06-14T12:21:37;23.10;50.30
9446;DHT22;4761;49.490;10.908;2023-06-14T12:24:04;23.00;50.20
9446;DHT22;4761;49.490;10.908;2023-06-14T12:26:32;23.00;50.00
9446;DHT22;4761;49.490;10.908;2023-06-14T12:28:58;23.00;49.60
9446;DHT22;4761;49.490;10.908;2023-06-14T12:31:23;23.10;49.50
9446;DHT22;4761;49.490;10.908;2023-06-14T12:33:49;23.00;49.30
9446;DHT22;4761;49.490;10.908;2023-06-14T12:36:15;23.10;49.50
9446;DHT22;4761;49.490;10.908;2023-06-14T12:38:42;23.10;49.50
9446;DHT22;4761;49.490;10.908;2023-06-14T12:41:07;23.10;49.30
9446;DHT22;4761;49.490;10.908;2023-06-14T12:43:33;23.10;49.40
9446;DHT22;4761;49.490;10.908;2023-06-14T12:45:59;23.10;49.20
9446;DHT22;4761;49.490;10.908;2023-06-14T12:48:25;23.10;49.00
9446;DHT22;4761;49.490;10.908;2023-06-14T12:50:52;23.10;49.30
9446;DHT22;4761;49.490;10.908;2023-06-14T12:53:18;23.10;49.10
9446;DHT22;4761;49.490;10.908;2023-06-14T12:55:44;23.10;49.30
9446;DHT22;4761;49.490;10.908;2023-06-14T12:58:10;23.20;49.60
9446;DHT22;4761;49.490;10.908;2023-06-14T13:00:38;23.10;49.50
9446;DHT22;4761;49.490;10.908;2023-06-14T13:03:03;23.10;49.60
9446;DHT22;4761;49.490;10.908;2023-06-14T13:05:29;23.10;49.50
9446;DHT22;4761;49.490;10.908;2023-06-14T13:07:56;23.10;49.40
9446;DHT22;4761;49.490;10.908;2023-06-14T13:10:22;23.20;49.50
9446;DHT22;4761;49.490;10.908;2023-06-14T13:12:47;23.20;50.10
9446;DHT22;4761;49.490;10.908;2023-06-14T13:15:13;23.20;49.60
9446;DHT22;4761;49.490;10.908;2023-06-14T13:17:38;23.20;49.10
9446;DHT22;4761;49.490;10.908;2023-06-14T13:20:08;23.20;48.40
9446;DHT22;4761;49.490;10.908;2023-06-14T13:22:34;23.20;48.90
9446;DHT22;4761;49.490;10.908;2023-06-14T13:25:00;23.20;49.00
9446;DHT22;4761;49.490;10.908;2023-06-14T13:27:26;23.20;49.20
9446;DHT22;4761;49.490;10.908;2023-06-14T13:29:52;23.20;49.20
9446;DHT22;4761;49.490;10.908;2023-06-14T13:32:18;23.20;48.80
9446;DHT22;4761;49.490;10.908;2023-06-14T13:34:43;23.20;48.90
9446;DHT22;4761;49.490;10.908;2023-06-14T13:37:09;23.20;48.80
9446;DHT22;4761;49.490;10.908;2023-06-14T13:39:35;23.10;48.50
9446;DHT22;4761;49.490;10.908;2023-06-14T13:42:03;23.20;48.40
9446;DHT22;4761;49.490;10.908;2023-06-14T13:44:28;23.10;48.20
9446;DHT22;4761;49.490;10.908;2023-06-14T13:46:54;23.10;48.20
9446;DHT22;4761;49.490;10.908;2023-06-14T13:49:19;23.10;48.20
9446;DHT22;4761;49.490;10.908;2023-06-14T13:51:45;23.20;48.50
9446;DHT22;4761;49.490;10.908;2023-06-14T13:54:12;23.20;48.60
9446;DHT22;4761;49.490;10.908;2023-06-14T13:56:39;23.10;48.60
9446;DHT22;4761;49.490;10.908;2023-06-14T13:59:05;23.20;48.90
9446;DHT22;4761;49.490;10.908;2023-06-14T14:01:30;23.10;48.90
9446;DHT22;4761;49.490;10.908;2023-06-14T14:03:56;23.10;48.90
9446;DHT22;4761;49.490;10.908;2023-06-14T14:06:21;23.10;48.50
9446;DHT22;4761;49.490;10.908;2023-06-14T14:08:47;23.10;48.50
9446;DHT22;4761;49.490;10.908;2023-06-14T14:11:13;23.10;48.80
9446;DHT22;4761;49.490;10.908;2023-06-14T14:13:38;23.10;49.00
9446;DHT22;4761;49.490;10.908;2023-06-14T14:16:05;23.10;49.10
9446;DHT22;4761;49.490;10.908;2023-06-14T14:18:31;23.10;49.70
9446;DHT22;4761;49.490;10.908;2023-06-14T14:20:58;23.10;49.10
9446;DHT22;4761;49.490;10.908;2023-06-14T14:23:24;23.10;49.30
9446;DHT22;4761;49.490;10.908;2023-06-14T14:25:49;23.10;49.30
9446;DHT22;4761;49.490;10.908;2023-06-14T14:28:15;23.10;49.20
9446;DHT22;4761;49.490;10.908;2023-06-14T14:30:46;23.10;48.80
9446;DHT22;4761;49.490;10.908;2023-06-14T14:33:13;23.20;49.00
9446;DHT22;4761;49.490;10.908;2023-06-14T14:35:42;23.20;49.10
9446;DHT22;4761;49.490;10.908;2023-06-14T14:38:07;23.10;49.10
9446;DHT22;4761;49.490;10.908;2023-06-14T14:40:33;23.20;49.20
9446;DHT22;4761;49.490;10.908;2023-06-14T14:42:58;23.20;49.30
9446;DHT22;4761;49.490;10.908;2023-06-14T14:45:24;23.20;49.30
9446;DHT22;4761;49.490;10.908;2023-06-14T14:47:49;23.20;49.20
9446;DHT22;4761;49.490;10.908;2023-06-14T14:50:15;23.20;48.90
9446;DHT22;4761;49.490;10.908;2023-06-14T14:52:41;23.20;49.20
9446;DHT22;4761;49.490;10.908;2023-06-14T14:55:07;23.20;49.10
9446;DHT22;4761;49.490;10.908;2023-06-14T14:57:33;23.20;49.10
9446;DHT22;4761;49.490;10.908;2023-06-14T14:59:58;23.20;49.00
9446;DHT22;4761;49.490;10.908;2023-06-14T15:02:24;23.30;49.10
9446;DHT22;4761;49.490;10.908;2023-06-14T15:04:50;23.30;49.00
9446;DHT22;4761;49.490;10.908;2023-06-14T15:07:15;23.30;49.10
9446;DHT22;4761;49.490;10.908;2023-06-14T15:09:41;23.30;49.10
9446;DHT22;4761;49.490;10.908;2023-06-14T15:12:07;23.30;49.00
9446;DHT22;4761;49.490;10.908;2023-06-14T15:14:33;23.20;48.90
9446;DHT22;4761;49.490;10.908;2023-06-14T15:16:59;23.30;49.00
9446;DHT22;4761;49.490;10.908;2023-06-14T15:19:26;23.30;48.90
9446;DHT22;4761;49.490;10.908;2023-06-14T15:21:52;23.20;48.80
9446;DHT22;4761;49.490;10.908;2023-06-14T15:24:17;23.30;48.90
9446;DHT22;4761;49.490;10.908;2023-06-14T15:26:43;23.20;48.10
9446;DHT22;4761;49.490;10.908;2023-06-14T15:29:08;23.20;48.20
9446;DHT22;4761;49.490;10.908;2023-06-14T15:31:34;23.30;48.50
9446;DHT22;4761;49.490;10.908;2023-06-14T15:33:59;23.30;48.50
9446;DHT22;4761;49.490;10.908;2023-06-14T15:36:25;23.20;48.50
9446;DHT22;4761;49.490;10.908;2023-06-14T15:38:50;23.20;48.60
9446;DHT22;4761;49.490;10.908;2023-06-14T15:41:16;23.20;48.60
9446;DHT22;4761;49.490;10.908;2023-06-14T15:43:41;23.20;48.60
9446;DHT22;4761;49.490;10.908;2023-06-14T15:46:07;23.20;48.70
9446;DHT22;4761;49.490;10.908;2023-06-14T15:48:32;23.30;48.70
9446;DHT22;4761;49.490;10.908;2023-06-14T15:50:58;23.20;48.70
9446;DHT22;4761;49.490;10.908;2023-06-14T15:53:23;23.20;48.80
9446;DHT22;4761;49.490;10.908;2023-06-14T15:55:49;23.20;48.70
9446;DHT22;4761;49.490;10.908;2023-06-14T15:58:14;23.20;48.80
9446;DHT22;4761;49.490;10.908;2023-06-14T16:00:40;23.20;48.80
9446;DHT22;4761;49.490;10.908;2023-06-14T16:03:06;23.20;48.80
9446;DHT22;4761;49.490;10.908;2023-06-14T16:05:31;23.20;48.80
9446;DHT22;4761;49.490;10.908;2023-06-14T16:07:57;23.20;48.80
9446;DHT22;4761;49.490;10.908;2023-06-14T16:10:22;23.20;48.80